Terminal Aerodrome Forecast
Issued by NWS Green Bay, WI

Home | Current Version | Previous Version | Text Only | Print | Product List | Glossary On
Versions: 1 2 3 4 5 6 7 8 9 10 11 12 13 14 15 16 17 18 19 20 21 22 23 24 25 26 27 28 29 30 31 32 33 34 35 36 37 38 39 40 41 42 43 44 45 46 47 48 49 50
000
FTUS43 KGRB 231700
TAFGRB
TAF
KGRB 231720Z 2318/2418 17009KT 2SM BR OVC006
      TEMPO 2318/2322 5SM -RA BR SCT006 OVC012
     FM232200 15006KT 2SM -RA BR OVC009
     FM240100 11005KT 1SM -RA BR OVC005
     FM240500 04004KT 3/4SM -RA BR OVC004
     FM240900 31005KT 1/2SM -RA FG OVC003
     FM241600 32012G18KT 2SM -RA BR OVC009=

USA.gov is the U.S. government's official web portal to all federal, state and local government web resources and services.